Погода Игнатово 2-ена 2 недели

Тверская область, Россия

25 мая-07 июня
  • 25мая
    Сегодня
    +10°
    +24°
    Ясно и безоблачно
    ВремяПогодаТемператураВлажностьДавлениеВетер, м/сВероятность осадков
    00:00Ясно и безоблачно+11°C54 %760 мм0.7 м/с2 %
    03:00Ясно и безоблачно+8°C59 %760 мм0.8 м/с2 %
    06:00Ясно и безоблачно+12°C60 %760 мм1.3 м/с2 %
    09:00Ясно и безоблачно+19°C45 %760 мм1.8 м/с2 %
    12:00Ясно и безоблачно+23°C31 %759 мм2.5 м/с2 %
    15:00Ясно и безоблачно+24°C31 %757 мм2.6 м/с2 %
    18:00Ясно и безоблачно+24°C34 %756 мм2.1 м/с2 %
    21:00Ясно и безоблачно+16°C47 %755 мм0.8 м/с2 %
  • 26мая
    Воскресенье
    +4°
    +21°
    Облачно с прояснениями
    ВремяПогодаТемператураВлажностьДавлениеВетер, м/сВероятность осадков
    00:00Практически безоблачно+13°C54 %755 мм0.7 м/с2 %
    03:00Ясно и безоблачно+11°C68 %755 мм0.4 м/с1 %
    06:00Практически безоблачно+14°C83 %756 мм1.0 м/с10 %
    09:00Пасмурно, сплошная облачность+18°C86 %757 мм1.2 м/с39 %
    12:00Облачно с прояснениями+21°C45 %757 мм1.9 м/с38 %
    15:00Облачно с прояснениями+21°C32 %757 мм2.3 м/с20 %
    18:00Облачно с прояснениями+19°C34 %757 мм2.0 м/с3 %
    21:00Ясно и безоблачно+13°C49 %758 мм0.6 м/с2 %
  • 27мая
    Понедельник
    +5°
    +22°
    Ясно и безоблачно
    ВремяПогодаТемператураВлажностьДавлениеВетер, м/сВероятность осадков
    00:00Ясно и безоблачно+8°C57 %759 мм0.6 м/с2 %
    03:00Ясно и безоблачно+6°C67 %760 мм0.4 м/с2 %
    06:00Ясно и безоблачно+9°C65 %760 мм0.7 м/с2 %
    09:00Ясно и безоблачно+17°C44 %761 мм1.1 м/с2 %
    12:00Ясно и безоблачно+20°C36 %760 мм1.4 м/с2 %
    15:00Ясно и безоблачно+21°C33 %759 мм1.3 м/с2 %
    18:00Небольшая облачность+21°C33 %758 мм1.1 м/с2 %
    21:00Ясно и безоблачно+15°C58 %758 мм0.3 м/с2 %
  • 28мая
    Вторник
    +8°
    +25°
    Ясно и безоблачно
    ВремяПогодаТемператураВлажностьДавлениеВетер, м/сВероятность осадков
    00:00Ясно и безоблачно+8°C71 %757 мм0.3 м/с2 %
    03:00Ясно и безоблачно+8°C80 %757 мм0.4 м/с2 %
    06:00Ясно и безоблачно+11°C74 %757 мм0.7 м/с2 %
    09:00Ясно и безоблачно+20°C53 %757 мм1.0 м/с2 %
    12:00Ясно и безоблачно+24°C39 %756 мм1.4 м/с2 %
    15:00Ясно и безоблачно+26°C37 %755 мм1.4 м/с2 %
    18:00Ясно и безоблачно+25°C38 %754 мм1.3 м/с2 %
    21:00Ясно и безоблачно+18°C55 %753 мм0.4 м/с2 %
  • 29мая
    Среда
    +10°
    +27°
    Ясно и безоблачно
    ВремяПогодаТемператураВлажностьДавлениеВетер, м/сВероятность осадков
    00:00Ясно и безоблачно+12°C67 %753 мм0.3 м/с2 %
    03:00Ясно и безоблачно+11°C73 %753 мм0.4 м/с2 %
    06:00Ясно и безоблачно+14°C71 %752 мм0.6 м/с4 %
    09:00Ясно и безоблачно+23°C53 %752 мм0.6 м/с7 %
    12:00Ясно и безоблачно+27°C38 %752 мм1.1 м/с13 %
    15:00Ясно и безоблачно+28°C35 %751 мм1.4 м/с18 %
    18:00Практически безоблачно+26°C38 %750 мм1.0 м/с26 %
    21:00Небольшая облачность+19°C64 %750 мм0.3 м/с8 %
Мы используем cookies
Соглашаюсь